Terminal Aerodrome Forecast
Issued by NWS Dodge City, KS

Home | Current Version | Previous Version | Text Only | Print | Product List | Glossary On
Versions: 1 2 3 4 5 6 7 8 9 10 11 12 13 14 15 16 17 18 19 20 21 22 23 24 25 26 27 28 29 30 31 32 33 34 35 36 37 38 39 40 41 42 43 44 45 46 47 48 49 50
007
FTUS43 KDDC 281726 AAA
TAFDDC
TAF AMD
KDDC 281726Z 2817/2918 10014G24KT 4SM BR OVC005
     FM281900 09015G25KT 2SM -SHRA OVC003
     FM290000 04022G32KT 1SM -RA OVC003=

USA.gov is the U.S. government's official web portal to all federal, state and local government web resources and services.